Time;durP1;ratioP1;P1;durP2;ratioP2;P2;SDS_P1;SDS_P2;PMS_P1;PMS_P2;Temp;Humidity;BMP_temperature;BMP_pressure;BME280_temperature;BME280_humidity;BME280_pressure;Samples;Min_cycle;Max_cycle;Signal;HPM_P1;HPM_P2
2024/03/21 00:01:12;;;;;;;8.93;7.78;;;;;;;6.57;100.00;150322.06;10422634;28;20140;-72
2024/03/21 00:06:12;;;;;;;8.85;7.47;;;;;;;6.75;100.00;150367.09;10439114;28;20037;-72
2024/03/21 00:11:13;;;;;;;8.38;7.47;;;;;;;6.72;100.00;150359.38;10447074;28;20041;-71
2024/03/21 00:16:14;;;;;;;9.23;7.45;;;;;;;6.75;100.00;150368.38;10448012;28;20128;-72
2024/03/21 00:21:15;;;;;;;10.70;7.47;;;;;;;6.90;100.00;150405.72;10447849;28;20044;-72
2024/03/21 00:26:16;;;;;;;8.48;7.68;;;;;;;6.63;100.00;150337.47;10429521;28;20115;-72
2024/03/21 00:31:16;;;;;;;18.00;7.47;;;;;;;6.62;100.00;150333.63;10446111;28;20044;-73
2024/03/21 00:36:17;;;;;;;7.95;6.93;;;;;;;6.61;100.00;150331.06;10445707;28;20044;-71
2024/03/21 00:41:19;;;;;;;8.98;6.82;;;;;;;6.51;100.00;150307.91;10444369;28;20037;-70
2024/03/21 00:46:20;;;;;;;11.23;7.93;;;;;;;6.84;100.00;150390.28;10444096;28;20489;-71
2024/03/21 00:51:21;;;;;;;7.97;7.18;;;;;;;6.61;100.00;150331.06;10444786;28;20083;-70
2024/03/21 00:56:22;;;;;;;8.80;7.90;;;;;;;6.57;100.00;150323.34;10444639;28;20402;-72
2024/03/21 01:01:23;;;;;;;10.35;8.57;;;;;;;6.54;100.00;150315.59;10444634;28;20040;-71
2024/03/21 01:06:23;;;;;;;9.30;8.05;;;;;;;6.12;100.00;150207.53;10443762;28;20111;-71
2024/03/21 01:11:24;;;;;;;9.48;7.90;;;;;;;5.98;100.00;150174.09;10444863;28;20049;-71
2024/03/21 01:16:26;;;;;;;8.90;7.55;;;;;;;6.00;100.00;150177.94;10428247;28;20366;-72
2024/03/21 01:21:29;;;;;;;8.35;7.53;;;;;;;6.06;100.00;150194.66;10443015;28;20098;-71
2024/03/21 01:26:30;;;;;;;8.88;7.82;;;;;;;6.05;100.00;150192.06;10426603;28;20045;-70
2024/03/21 01:31:33;;;;;;;7.97;7.18;;;;;;;5.92;100.00;150158.63;10427335;28;20544;-70
2024/03/21 01:36:44;;;;;;;8.82;7.55;;;;;;;5.74;100.00;150112.25;10443333;28;20040;-71
2024/03/21 01:41:45;;;;;;;10.65;9.15;;;;;;;5.66;100.00;150091.66;10443003;28;20080;-71
2024/03/21 01:46:46;;;;;;;9.45;7.70;;;;;;;5.94;100.00;150163.78;10443320;28;20037;-72
2024/03/21 01:51:48;;;;;;;10.45;7.63;;;;;;;5.77;100.00;150121.28;10443203;28;20124;-70
2024/03/21 01:56:49;;;;;;;9.30;7.63;;;;;;;5.51;100.00;150055.66;10442851;28;20049;-70
2024/03/21 02:01:50;;;;;;;9.02;8.13;;;;;;;5.55;100.00;150064.69;10443453;28;20033;-71
2024/03/21 02:06:52;;;;;;;8.63;7.53;;;;;;;5.46;100.00;150041.53;10425500;28;20165;-71
2024/03/21 02:11:53;;;;;;;10.55;8.13;;;;;;;5.36;100.00;150015.78;10441502;28;20067;-70
2024/03/21 02:16:55;;;;;;;8.40;7.45;;;;;;;5.40;100.00;150027.41;10441385;28;20041;-72
2024/03/21 02:27:20;;;;;;;9.25;7.50;;;;;;;5.24;100.00;149986.25;10440469;28;20091;-71
2024/03/21 02:32:20;;;;;;;8.68;7.78;;;;;;;5.14;100.00;149960.53;10439936;28;20470;-71
2024/03/21 02:37:22;;;;;;;8.75;7.90;;;;;;;5.04;100.00;149937.34;10439743;28;20037;-71
2024/03/21 02:42:24;;;;;;;10.27;7.22;;;;;;;4.93;100.00;149909.09;10439768;28;20416;-71
2024/03/21 02:47:24;;;;;;;8.07;7.13;;;;;;;4.86;100.00;149891.09;10440180;28;20052;-71
2024/03/21 02:52:25;;;;;;;9.02;8.13;;;;;;;5.03;100.00;149934.78;10424250;28;20099;-70
2024/03/21 02:57:26;;;;;;;8.25;7.25;;;;;;;5.02;100.00;149932.25;10441181;28;20123;-71
2024/03/21 03:02:28;;;;;;;8.38;7.57;;;;;;;5.08;100.00;149946.38;10440788;28;20066;-70
2024/03/21 03:07:28;;;;;;;8.75;7.85;;;;;;;5.09;100.00;149948.97;10439925;28;20083;-71
2024/03/21 03:12:30;;;;;;;8.93;8.05;;;;;;;4.90;100.00;149901.38;10439770;28;20409;-70
2024/03/21 03:17:31;;;;;;;8.98;8.07;;;;;;;4.96;100.00;149916.84;10440694;28;20106;-71
2024/03/21 03:22:32;;;;;;;10.88;8.18;;;;;;;4.86;100.00;149889.81;10423288;28;20049;-71
2024/03/21 03:27:33;;;;;;;9.45;8.05;;;;;;;4.90;100.00;149901.38;10439020;28;20386;-71
2024/03/21 03:32:36;;;;;;;9.38;8.40;;;;;;;5.07;100.00;149943.81;10438688;28;20045;-71
2024/03/21 03:37:37;;;;;;;11.43;9.65;;;;;;;5.26;100.00;149992.63;10422554;28;20086;-70
2024/03/21 03:42:38;;;;;;;10.25;9.15;;;;;;;5.07;100.00;149945.09;10440512;28;20087;-70
2024/03/21 03:47:39;;;;;;;9.73;8.73;;;;;;;5.35;100.00;150014.50;10447851;28;20045;-71
2024/03/21 03:52:40;;;;;;;15.18;10.15;;;;;;;5.37;100.00;150018.41;10448237;28;20052;-71
2024/03/21 03:57:40;;;;;;;11.57;10.40;;;;;;;5.40;100.00;150026.06;10431896;28;20056;-71
2024/03/21 04:02:44;;;;;;;11.27;9.68;;;;;;;5.55;100.00;150064.69;10448354;28;20051;-71
2024/03/21 04:07:45;;;;;;;10.77;9.77;;;;;;;5.35;100.00;150014.50;10447642;28;20048;-71
2024/03/21 04:12:46;;;;;;;11.18;9.75;;;;;;;5.35;100.00;150014.50;10446595;28;20048;-71
2024/03/21 04:17:50;;;;;;;10.88;9.85;;;;;;;5.32;100.00;150008.09;10445755;28;20055;-71
2024/03/21 04:22:51;;;;;;;12.27;8.93;;;;;;;5.35;100.00;150014.50;10445630;28;20044;-72
2024/03/21 04:27:52;;;;;;;10.95;9.95;;;;;;;5.59;100.00;150074.97;10429522;28;20040;-70
2024/03/21 04:32:53;;;;;;;13.98;11.18;;;;;;;5.76;100.00;150117.44;10445756;28;20428;-71
2024/03/21 04:37:54;;;;;;;11.27;9.95;;;;;;;5.53;100.00;150060.84;10429017;28;20048;-71
2024/03/21 04:42:57;;;;;;;12.07;10.43;;;;;;;5.47;100.00;150045.38;10444967;28;20513;-70
2024/03/21 04:47:58;;;;;;;14.80;10.63;;;;;;;5.44;100.00;150036.38;10444779;28;20049;-70
2024/03/21 04:52:58;;;;;;;12.75;11.43;;;;;;;5.34;100.00;150011.94;10444282;28;20067;-70
2024/03/21 04:57:59;;;;;;;13.57;12.18;;;;;;;5.13;100.00;149957.94;10426434;28;20049;-70
2024/03/21 05:03:00;;;;;;;18.33;11.88;;;;;;;5.09;100.00;149947.66;10444762;28;20057;-70
2024/03/21 05:08:02;;;;;;;13.63;12.15;;;;;;;5.34;100.00;150010.66;10443025;28;20512;-72
2024/03/21 05:13:03;;;;;;;17.38;11.82;;;;;;;5.44;100.00;150037.66;10444756;28;20033;-72
2024/03/21 05:18:04;;;;;;;13.43;12.07;;;;;;;5.44;100.00;150037.66;10443271;28;20101;-71
2024/03/21 05:23:05;;;;;;;14.05;12.65;;;;;;;5.56;100.00;150067.25;10426954;28;20045;-71
2024/03/21 05:28:06;;;;;;;13.30;11.52;;;;;;;5.40;100.00;150026.06;10443221;28;20562;-71
2024/03/21 05:33:08;;;;;;;14.80;13.18;;;;;;;5.45;100.00;150038.97;10442809;28;20045;-71
2024/03/21 05:38:09;;;;;;;14.77;13.10;;;;;;;5.60;100.00;150077.53;10442296;28;20041;-71
2024/03/21 05:43:10;;;;;;;21.58;14.13;;;;;;;5.72;100.00;150107.13;10442165;28;20032;-69
2024/03/21 05:48:11;;;;;;;14.00;12.38;;;;;;;5.68;100.00;150098.13;10442504;28;20489;-71
2024/03/21 05:53:12;;;;;;;16.02;13.32;;;;;;;5.83;100.00;150136.69;10442371;28;20544;-70
2024/03/21 05:58:13;;;;;;;13.88;12.38;;;;;;;5.79;100.00;150126.41;10413423;28;20045;-72
2024/03/21 06:03:14;;;;;;;17.90;14.20;;;;;;;5.93;100.00;150161.22;10383717;28;20412;-71
2024/03/21 06:08:16;;;;;;;15.00;13.48;;;;;;;5.99;100.00;150175.38;10400082;28;20045;-70
2024/03/21 06:13:17;;;;;;;18.40;14.30;;;;;;;6.07;100.00;150197.25;10399791;28;20041;-71
2024/03/21 06:18:18;;;;;;;18.80;13.43;;;;;;;6.23;100.00;150235.81;10399933;28;20045;-71
2024/03/21 06:23:18;;;;;;;14.88;12.80;;;;;;;6.41;100.00;150280.84;10400081;28;20560;-70
2024/03/21 06:28:19;;;;;;;17.88;14.27;;;;;;;6.71;100.00;150358.09;10400300;28;20083;-72
2024/03/21 06:33:20;;;;;;;17.30;14.52;;;;;;;7.15;100.00;150467.53;10383894;28;20037;-70
2024/03/21 06:38:21;;;;;;;17.58;13.73;;;;;;;7.42;100.00;150535.78;10399260;28;20041;-72
2024/03/21 06:43:22;;;;;;;15.95;13.98;;;;;;;7.55;100.00;150570.56;10398870;28;20048;-71
2024/03/21 06:48:24;;;;;;;16.73;15.02;;;;;;;7.64;100.00;150591.19;10398730;28;20052;-71
2024/03/21 06:53:26;;;;;;;15.85;14.20;;;;;;;7.77;100.00;150625.97;10399438;28;20041;-71
2024/03/21 06:58:27;;;;;;;16.75;14.80;;;;;;;7.93;97.87;150665.91;10429213;28;20045;-71
2024/03/21 07:03:28;;;;;;;25.15;15.68;;;;;;;8.19;94.95;150730.31;10439868;28;20040;-71
2024/03/21 07:08:29;;;;;;;17.48;15.43;;;;;;;8.38;94.75;150779.38;10441010;28;20094;-71
2024/03/21 07:13:30;;;;;;;15.85;13.73;;;;;;;8.80;90.89;150886.34;10441335;28;20103;-71
2024/03/21 07:18:30;;;;;;;16.00;14.50;;;;;;;8.87;88.89;150903.13;10443181;28;20056;-71
2024/03/21 07:23:32;;;;;;;15.82;14.13;;;;;;;9.76;85.12;151128.88;10447799;28;20040;-71
2024/03/21 07:28:33;;;;;;;14.77;13.38;;;;;;;10.11;81.62;151217.91;10447116;28;20049;-71
2024/03/21 07:33:33;;;;;;;14.45;13.02;;;;;;;10.06;83.18;151203.75;10446852;28;20405;-71
2024/03/21 07:38:34;;;;;;;16.08;13.48;;;;;;;10.58;79.37;151335.41;10446775;28;20049;-71
2024/03/21 07:43:35;;;;;;;15.43;13.80;;;;;;;10.10;80.32;151215.34;10429938;28;20480;-71
2024/03/21 07:48:36;;;;;;;15.73;14.13;;;;;;;10.85;78.47;151403.91;10446887;28;20041;-70
2024/03/21 07:53:37;;;;;;;14.65;11.93;;;;;;;11.01;78.75;151445.19;10447597;28;20037;-71
2024/03/21 07:58:37;;;;;;;15.55;12.85;;;;;;;10.86;77.19;151406.47;10447907;28;20049;-71
2024/03/21 08:03:38;;;;;;;13.52;12.23;;;;;;;11.16;76.17;151481.41;10448765;28;20035;-70
2024/03/21 08:08:39;;;;;;;14.45;12.00;;;;;;;11.16;77.65;151481.41;10446705;28;20040;-71
2024/03/21 08:13:43;;;;;;;13.98;12.65;;;;;;;11.56;77.07;151583.47;10445911;28;20124;-71
2024/03/21 08:18:46;;;;;;;13.75;12.35;;;;;;;11.16;75.06;151481.41;10446567;28;20036;-72
2024/03/21 08:23:48;;;;;;;15.07;12.50;;;;;;;11.46;76.17;151558.88;10445575;28;20059;-72
2024/03/21 08:28:49;;;;;;;13.40;12.02;;;;;;;11.59;73.73;151592.47;10430965;28;20409;-72
2024/03/21 08:33:50;;;;;;;16.17;12.15;;;;;;;11.77;72.47;151637.69;10446702;28;20048;-72
2024/03/21 08:38:51;;;;;;;15.75;12.60;;;;;;;11.84;72.63;151655.84;10445015;28;20044;-72
2024/03/21 08:43:52;;;;;;;13.23;11.85;;;;;;;12.03;73.36;151702.38;10445261;28;20382;-71
2024/03/21 08:48:53;;;;;;;13.25;11.95;;;;;;;12.00;74.48;151694.66;10428561;28;20076;-72
2024/03/21 08:53:54;;;;;;;14.95;12.55;;;;;;;12.52;71.12;151827.78;10445163;28;20067;-72
2024/03/21 08:58:55;;;;;;;13.15;11.35;;;;;;;12.54;71.71;151831.69;10428812;28;20124;-72
2024/03/21 09:03:55;;;;;;;13.75;11.43;;;;;;;12.89;71.84;151920.91;10427646;28;20144;-73
2024/03/21 09:08:57;;;;;;;13.32;11.95;;;;;;;13.30;69.27;152024.44;10443803;28;20044;-72
2024/03/21 09:13:58;;;;;;;12.75;11.50;;;;;;;13.75;67.49;152138.31;10445380;28;20493;-74
2024/03/21 09:18:58;;;;;;;13.98;11.70;;;;;;;13.76;67.95;152142.19;10429617;28;20045;-72
2024/03/21 09:23:59;;;;;;;11.52;10.43;;;;;;;13.92;67.43;152182.31;10443907;28;20137;-72
2024/03/21 09:29:01;;;;;;;13.75;10.73;;;;;;;14.29;64.75;152276.81;10444979;28;20041;-72
2024/03/21 09:34:02;;;;;;;11.60;10.50;;;;;;;14.01;66.48;152205.63;10427722;28;20095;-72
2024/03/21 09:39:03;;;;;;;11.60;10.45;;;;;;;14.55;64.41;152342.91;10443117;28;20094;-72
2024/03/21 09:44:04;;;;;;;10.40;9.50;;;;;;;14.39;65.77;152301.44;10442282;28;20063;-73
2024/03/21 09:49:09;;;;;;;11.23;10.23;;;;;;;14.48;65.17;152324.78;10442416;28;20072;-72
2024/03/21 09:54:11;;;;;;;11.57;9.73;;;;;;;15.04;64.08;152465.94;10442151;28;20037;-71
2024/03/21 09:59:13;;;;;;;10.70;9.68;;;;;;;15.26;62.13;152521.66;10442290;28;20056;-72
2024/03/21 10:04:14;;;;;;;10.45;9.00;;;;;;;15.23;62.15;152515.19;10441399;28;20037;-71
2024/03/21 10:09:15;;;;;;;10.57;9.65;;;;;;;15.11;62.60;152484.09;10441733;28;20044;-72
2024/03/21 10:14:16;;;;;;;12.48;11.18;;;;;;;14.69;64.65;152376.56;10464824;28;20098;-72
2024/03/21 10:19:17;;;;;;;12.27;11.10;;;;;;;14.20;66.24;152253.50;10457271;28;20041;-72
2024/03/21 10:24:18;;;;;;;11.40;10.40;;;;;;;14.21;67.99;152256.13;10441212;28;20033;-71
2024/03/21 10:29:19;;;;;;;11.30;10.30;;;;;;;14.00;69.64;152201.75;10443015;28;20044;-72
2024/03/21 10:34:23;;;;;;;9.07;8.25;;;;;;;14.08;70.37;152223.75;10443423;28;20382;-71
2024/03/21 10:39:24;;;;;;;6.30;5.47;;;;;;;14.32;70.32;152283.28;10442103;28;20071;-72
2024/03/21 10:44:26;;;;;;;5.97;5.47;;;;;;;14.22;71.75;152257.41;10441185;28;20495;-71
2024/03/21 10:49:27;;;;;;;6.35;5.75;;;;;;;14.18;73.49;152247.06;10441360;28;20045;-71
2024/03/21 10:54:28;;;;;;;6.20;5.60;;;;;;;14.27;74.04;152271.66;10440551;28;20041;-71
2024/03/21 10:59:30;;;;;;;6.45;5.85;;;;;;;14.02;76.69;152208.19;10425271;28;20040;-71
2024/03/21 11:04:35;;;;;;;6.07;5.00;;;;;;;13.79;77.35;152148.66;10440932;28;20041;-71
2024/03/21 11:09:36;;;;;;;6.47;5.88;;;;;;;13.52;81.87;152080.09;10440576;28;20041;-72
2024/03/21 11:14:38;;;;;;;5.68;5.13;;;;;;;13.52;81.00;152080.09;10440323;28;20489;-71
2024/03/21 11:19:39;;;;;;;6.95;6.35;;;;;;;13.76;81.95;152142.19;10439086;28;20094;-71
2024/03/21 11:24:40;;;;;;;6.47;5.63;;;;;;;14.00;80.44;152203.03;10439943;28;20041;-72
2024/03/21 11:29:41;;;;;;;4.82;4.32;;;;;;;14.20;80.05;152252.22;10441825;28;20680;-71
2024/03/21 11:34:42;;;;;;;5.40;4.88;;;;;;;14.28;79.20;152272.94;10440154;28;20041;-71
2024/03/21 11:39:44;;;;;;;4.20;3.80;;;;;;;14.69;78.63;152376.56;10440206;28;20175;-71
2024/03/21 11:44:46;;;;;;;4.53;4.13;;;;;;;15.00;76.53;152455.56;10422277;28;20115;-71
2024/03/21 11:49:52;;;;;;;4.47;4.05;;;;;;;14.82;76.68;152410.25;10439529;28;20056;-71
2024/03/21 11:54:53;;;;;;;4.32;3.25;;;;;;;14.98;75.28;152451.72;10440713;28;20037;-71
2024/03/21 11:59:56;;;;;;;3.40;3.10;;;;;;;14.57;77.61;152348.09;10424219;28;20080;-72
2024/03/21 12:04:57;;;;;;;4.57;4.18;;;;;;;14.23;80.65;152260.00;10443006;28;20041;-72
2024/03/21 12:09:58;;;;;;;4.43;3.28;;;;;;;14.27;80.00;152271.66;10447543;28;20060;-72
2024/03/21 12:14:59;;;;;;;3.17;2.88;;;;;;;14.65;77.62;152367.50;10448129;28;20037;-73
2024/03/21 12:20:01;;;;;;;3.85;3.55;;;;;;;14.70;79.14;152379.16;10432148;28;20551;-72
2024/03/21 12:25:02;;;;;;;3.83;3.08;;;;;;;14.42;79.46;152309.19;10450093;28;20409;-73
2024/03/21 12:30:03;;;;;;;3.47;3.10;;;;;;;14.39;80.22;152302.72;10434416;28;20045;-75
2024/03/21 12:35:07;;;;;;;2.10;1.90;;;;;;;14.25;80.13;152265.16;10446052;28;20037;-72
2024/03/21 12:40:08;;;;;;;2.75;2.05;;;;;;;14.21;79.54;152254.78;10412746;28;20045;-72
2024/03/21 12:45:09;;;;;;;2.72;2.53;;;;;;;14.23;79.62;152261.28;10446220;28;20420;-72
2024/03/21 12:50:10;;;;;;;3.20;2.90;;;;;;;13.73;82.70;152134.44;10444241;28;20099;-72
2024/03/21 12:55:11;;;;;;;3.00;2.67;;;;;;;13.76;82.95;152142.19;10444264;28;20386;-72
2024/03/21 13:00:12;;;;;;;12.93;8.10;;;;;;;13.94;81.29;152187.47;10444513;28;20064;-72
2024/03/21 13:05:13;;;;;;;4.88;3.60;;;;;;;13.89;82.12;152174.53;10444708;28;20091;-72
2024/03/21 13:10:14;;;;;;;3.88;2.33;;;;;;;13.50;85.01;152074.88;10445909;28;20063;-72
2024/03/21 13:15:15;;;;;;;1.88;1.77;;;;;;;13.59;83.85;152099.50;10453721;28;20037;-72
2024/03/21 13:20:18;;;;;;;3.10;2.28;;;;;;;14.02;80.71;152206.91;10485936;28;20044;-71
2024/03/21 13:25:21;;;;;;;3.10;2.45;;;;;;;14.16;79.28;152241.84;10485260;28;20408;-71
2024/03/21 13:30:26;;;;;;;10.48;7.18;;;;;;;14.03;80.98;152210.81;10484705;28;20044;-72
2024/03/21 13:35:27;;;;;;;7.45;6.05;;;;;;;14.02;81.27;152208.19;10485030;28;20024;-71
2024/03/21 13:40:31;;;;;;;10.18;6.55;;;;;;;13.80;84.53;152151.25;10484979;28;20048;-73
2024/03/21 13:45:32;;;;;;;3.03;2.80;;;;;;;13.75;85.09;152138.31;10485091;28;20052;-72
2024/03/21 13:50:33;;;;;;;25.80;11.05;;;;;;;14.17;82.23;152244.47;10484761;28;20049;-71
2024/03/21 13:55:33;;;;;;;9.40;5.47;;;;;;;14.22;80.68;152258.69;10484277;28;20064;-71
2024/03/21 14:00:38;;;;;;;9.80;4.70;;;;;;;14.50;78.87;152329.94;10483429;28;20072;-71
2024/03/21 14:05:39;;;;;;;5.95;3.35;;;;;;;14.63;79.21;152363.63;10483021;28;20526;-72
2024/03/21 14:10:40;;;;;;;1.52;1.40;;;;;;;14.82;73.98;152410.25;10483695;28;20047;-71
2024/03/21 14:15:41;;;;;;;6.75;2.70;;;;;;;14.68;74.51;152375.28;10483563;28;20036;-72
2024/03/21 14:20:44;;;;;;;81.00;19.77;;;;;;;14.70;69.72;152380.47;10483790;28;20040;-72
2024/03/21 14:25:45;;;;;;;1.10;0.98;;;;;;;14.31;72.10;152280.72;10484080;28;20040;-72
2024/03/21 14:30:47;;;;;;;1.10;0.80;;;;;;;14.16;71.01;152243.13;10484578;28;20117;-72
2024/03/21 14:35:49;;;;;;;106.75;27.85;;;;;;;14.69;67.27;152377.84;10483468;28;20052;-72
2024/03/21 14:40:50;;;;;;;65.13;18.70;;;;;;;14.56;68.26;152345.47;10481330;28;20040;-72
2024/03/21 14:45:51;;;;;;;72.78;21.30;;;;;;;14.47;68.24;152320.81;10481683;28;20564;-72
2024/03/21 14:50:51;;;;;;;2.70;1.55;;;;;;;14.11;70.52;152231.50;10481308;28;20048;-72
2024/03/21 14:55:53;;;;;;;7.05;5.47;;;;;;;13.85;72.63;152165.47;10481150;28;20044;-72
2024/03/21 15:00:54;;;;;;;1.95;1.73;;;;;;;14.09;72.53;152225.03;10485025;28;20040;-73
2024/03/21 15:05:55;;;;;;;8.48;7.57;;;;;;;14.16;72.35;152243.13;10466841;28;20037;-72
2024/03/21 15:10:56;;;;;;;4.03;3.50;;;;;;;14.36;71.77;152294.94;10483552;28;20066;-72
2024/03/21 15:15:57;;;;;;;6.07;5.57;;;;;;;14.31;71.42;152280.72;10467603;28;20055;-72
2024/03/21 15:20:58;;;;;;;7.47;6.78;;;;;;;14.44;70.88;152314.38;10481422;28;20055;-71
2024/03/21 15:25:59;;;;;;;8.35;7.43;;;;;;;14.32;72.57;152283.28;10481674;28;20045;-71
2024/03/21 15:31:00;;;;;;;3.72;3.33;;;;;;;14.32;73.41;152284.59;10483044;28;20086;-71
2024/03/21 15:36:02;;;;;;;18.20;13.27;;;;;;;14.30;72.94;152279.44;10465322;28;20040;-72
2024/03/21 15:41:03;;;;;;;4.30;3.90;;;;;;;14.20;73.38;152252.22;10471241;28;20086;-72
2024/03/21 15:46:04;;;;;;;4.60;4.20;;;;;;;14.12;73.95;152234.13;10490160;28;20492;-72
2024/03/21 15:51:05;;;;;;;4.25;3.85;;;;;;;13.88;75.73;152171.97;10488277;28;20047;-72
2024/03/21 15:56:06;;;;;;;3.65;3.35;;;;;;;13.76;77.18;152142.19;10471412;28;20041;-71
2024/03/21 16:01:07;;;;;;;8.50;7.70;;;;;;;13.55;78.88;152087.88;10488038;28;20115;-71
2024/03/21 16:06:08;;;;;;;10.55;9.45;;;;;;;13.80;77.28;152151.25;10487726;28;20039;-71
2024/03/21 16:11:09;;;;;;;5.75;5.20;;;;;;;13.66;78.55;152115.03;10489128;28;20044;-71
2024/03/21 16:16:10;;;;;;;40.70;20.27;;;;;;;13.67;79.16;152118.88;10487870;28;20098;-71
2024/03/21 16:21:11;;;;;;;5.15;4.75;;;;;;;13.49;81.65;152072.31;10471506;28;20415;-71
2024/03/21 16:26:13;;;;;;;27.83;16.90;;;;;;;13.46;82.30;152064.53;10487296;28;20054;-72
2024/03/21 16:31:14;;;;;;;10.20;9.23;;;;;;;13.42;83.57;152054.22;10473485;28;20076;-72
2024/03/21 16:36:15;;;;;;;7.50;6.80;;;;;;;13.19;85.39;151997.19;10489411;28;20033;-71
2024/03/21 16:41:16;;;;;;;7.38;6.68;;;;;;;12.87;88.60;151915.72;10471258;28;20052;-71
2024/03/21 16:46:16;;;;;;;7.72;7.03;;;;;;;12.60;86.93;151847.19;10469912;28;20032;-72
2024/03/21 16:51:17;;;;;;;7.55;6.95;;;;;;;12.35;86.67;151783.81;10469829;28;20066;-71
2024/03/21 16:56:18;;;;;;;7.78;7.03;;;;;;;11.90;86.43;151670.06;10486740;28;20063;-71
2024/03/21 17:01:19;;;;;;;9.25;8.35;;;;;;;11.78;87.28;151639.03;10486989;28;20094;-71
2024/03/21 17:06:21;;;;;;;8.35;7.55;;;;;;;11.43;88.82;151549.88;10486466;28;20040;-71
2024/03/21 17:11:21;;;;;;;8.98;8.18;;;;;;;11.21;91.14;151495.59;10485716;28;20048;-71
2024/03/21 17:16:22;;;;;;;8.75;7.90;;;;;;;10.93;93.21;151423.25;10485220;28;20587;-71
2024/03/21 17:21:23;;;;;;;8.38;7.57;;;;;;;11.03;92.29;151449.09;10485752;28;20044;-71
2024/03/21 17:26:24;;;;;;;9.30;8.40;;;;;;;10.82;94.79;151396.13;10486113;28;20044;-71
2024/03/21 17:31:24;;;;;;;9.75;8.82;;;;;;;10.78;94.42;151387.09;10485266;28;20450;-71
2024/03/21 17:36:25;;;;;;;7.60;6.90;;;;;;;10.52;94.58;151319.94;10485854;28;20036;-72
2024/03/21 17:41:30;;;;;;;7.32;6.63;;;;;;;10.58;91.81;151336.75;10485335;28;20040;-72
2024/03/21 17:46:31;;;;;;;5.03;4.63;;;;;;;10.57;90.23;151334.13;10484685;28;20526;-72
2024/03/21 17:51:34;;;;;;;5.03;4.55;;;;;;;10.55;89.40;151329.00;10484886;28;20393;-71
2024/03/21 17:56:37;;;;;;;4.90;4.22;;;;;;;10.43;90.08;151296.72;10443052;28;20103;-72
2024/03/21 18:01:38;;;;;;;4.15;3.75;;;;;;;10.44;89.88;151299.28;10427507;28;20049;-71
2024/03/21 18:06:39;;;;;;;5.40;3.97;;;;;;;10.34;89.26;151274.75;10446183;28;20485;-72
2024/03/21 18:11:40;;;;;;;3.72;3.40;;;;;;;10.24;90.42;151250.25;10449207;28;20523;-72
2024/03/21 18:16:41;;;;;;;3.17;2.88;;;;;;;10.07;90.02;151207.59;10488068;28;20480;-72
2024/03/21 18:21:41;;;;;;;3.28;2.97;;;;;;;9.93;90.94;151170.19;10490565;28;20105;-73
2024/03/21 18:26:42;;;;;;;4.05;3.65;;;;;;;9.79;91.59;151135.34;10491838;28;20044;-73
2024/03/21 18:31:43;;;;;;;3.63;3.33;;;;;;;9.82;91.78;151143.06;10489567;28;20044;-72
2024/03/21 18:36:44;;;;;;;4.72;4.20;;;;;;;9.59;93.78;151085.00;10471190;28;20044;-72
2024/03/21 18:41:45;;;;;;;4.53;3.90;;;;;;;9.57;93.83;151079.84;10488213;28;20602;-71
2024/03/21 18:46:45;;;;;;;4.55;4.15;;;;;;;9.46;94.99;151051.44;10487637;28;20510;-72
2024/03/21 18:51:46;;;;;;;4.70;3.90;;;;;;;9.35;94.67;151024.38;10471933;28;20413;-74
2024/03/21 18:56:47;;;;;;;4.25;3.85;;;;;;;9.40;93.52;151037.28;10487414;28;20100;-72
2024/03/21 19:01:48;;;;;;;5.00;4.28;;;;;;;9.27;94.46;151003.75;10471584;28;20086;-72
2024/03/21 19:06:49;;;;;;;4.05;3.55;;;;;;;9.17;94.87;150977.94;10454107;28;20044;-72
2024/03/21 19:11:50;;;;;;;4.40;4.00;;;;;;;9.44;93.30;151046.31;10488301;28;20045;-72
2024/03/21 19:16:51;;;;;;;4.63;4.18;;;;;;;9.46;93.93;151051.44;10472472;28;20135;-74
2024/03/21 19:21:52;;;;;;;4.70;4.07;;;;;;;9.37;94.34;151029.53;10472055;28;20728;-72
2024/03/21 19:26:52;;;;;;;5.05;3.55;;;;;;;9.20;95.54;150986.94;10488742;28;20496;-72
2024/03/21 19:31:53;;;;;;;5.05;4.45;;;;;;;9.27;95.77;151005.03;10488409;28;20047;-72
2024/03/21 19:36:54;;;;;;;5.15;4.20;;;;;;;9.16;96.75;150975.34;10485157;28;20037;-72
2024/03/21 19:41:56;;;;;;;6.68;4.80;;;;;;;9.15;97.98;150974.06;10485705;28;20048;-73
2024/03/21 19:46:57;;;;;;;4.53;4.13;;;;;;;9.15;97.36;150972.78;10468977;28;20036;-73
2024/03/21 19:52:00;;;;;;;4.30;3.90;;;;;;;9.20;97.56;150986.94;10467855;28;20514;-73
2024/03/21 19:57:01;;;;;;;5.25;4.65;;;;;;;9.13;98.16;150967.63;10484117;28;20033;-72
2024/03/21 20:02:04;;;;;;;11.95;5.20;;;;;;;9.26;97.60;151001.16;10467589;28;20451;-73
2024/03/21 20:07:07;;;;;;;5.07;4.40;;;;;;;9.26;97.13;151002.44;10483103;28;20056;-72
2024/03/21 20:12:10;;;;;;;4.95;4.30;;;;;;;9.18;97.79;150981.81;10483509;28;20412;-73
2024/03/21 20:17:11;;;;;;;9.95;8.48;;;;;;;9.11;98.31;150963.72;10483708;28;20047;-71
2024/03/21 20:22:11;;;;;;;21.65;13.50;;;;;;;9.18;97.87;150980.53;10466339;28;20056;-72
2024/03/21 20:27:13;;;;;;;6.32;4.28;;;;;;;9.15;97.89;150974.06;10488500;28;20119;-73
2024/03/21 20:32:14;;;;;;;4.97;4.47;;;;;;;9.21;97.09;150988.22;10472431;28;20452;-71
2024/03/21 20:37:15;;;;;;;6.07;5.07;;;;;;;9.25;96.48;150999.88;10488423;28;20033;-74
2024/03/21 20:42:16;;;;;;;6.65;5.70;;;;;;;8.98;99.09;150931.47;10487439;28;20040;-72
2024/03/21 20:47:16;;;;;;;5.45;4.95;;;;;;;9.03;98.27;150944.44;10486974;28;20067;-71
2024/03/21 20:52:17;;;;;;;5.70;5.07;;;;;;;9.03;98.41;150944.44;10487027;28;20044;-72
2024/03/21 20:57:18;;;;;;;8.65;7.15;;;;;;;9.00;98.61;150935.38;10486754;28;20036;-71
2024/03/21 21:02:19;;;;;;;6.90;6.20;;;;;;;9.05;99.12;150949.56;10486818;28;20052;-72
2024/03/21 21:07:20;;;;;;;5.50;4.65;;;;;;;8.90;100.00;150910.88;10470268;28;20571;-73
2024/03/21 21:12:21;;;;;;;8.25;6.28;;;;;;;9.02;98.69;150941.81;10453798;28;20576;-72
2024/03/21 21:17:21;;;;;;;8.27;7.43;;;;;;;8.91;100.00;150913.47;10486527;28;20036;-71
2024/03/21 21:22:22;;;;;;;5.05;4.43;;;;;;;8.80;100.00;150886.34;10485553;28;20098;-73
2024/03/21 21:27:28;;;;;;;7.72;5.75;;;;;;;9.03;99.90;150944.44;10468735;28;20032;-72
2024/03/21 21:32:30;;;;;;;6.10;5.50;;;;;;;8.90;100.00;150910.88;10468050;28;20044;-72
2024/03/21 21:37:31;;;;;;;7.65;6.28;;;;;;;8.96;100.00;150925.06;10483329;28;20037;-72
2024/03/21 21:42:32;;;;;;;6.13;4.70;;;;;;;8.80;100.00;150886.34;10484247;28;20048;-71
2024/03/21 21:47:33;;;;;;;6.28;5.68;;;;;;;8.80;100.00;150886.34;10483614;28;20052;-71
2024/03/21 21:52:33;;;;;;;6.28;5.10;;;;;;;8.77;100.00;150878.66;10483334;28;20571;-71
2024/03/21 21:57:35;;;;;;;6.63;5.60;;;;;;;8.68;100.00;150854.16;10466406;28;20067;-71
2024/03/21 22:02:35;;;;;;;7.03;6.25;;;;;;;8.74;100.00;150870.91;10466319;28;20123;-71
2024/03/21 22:07:36;;;;;;;8.00;5.95;;;;;;;8.76;100.00;150874.75;10482614;28;20072;-71
2024/03/21 22:12:37;;;;;;;6.45;5.60;;;;;;;8.91;100.00;150912.19;10482644;28;20040;-71
2024/03/21 22:17:38;;;;;;;7.45;6.65;;;;;;;8.86;100.00;150900.56;10482147;28;20039;-71
2024/03/21 22:22:38;;;;;;;10.43;6.03;;;;;;;8.69;100.00;150858.00;10482007;28;20106;-71
2024/03/21 22:27:42;;;;;;;6.82;5.57;;;;;;;8.81;100.00;150887.69;10482732;28;20520;-72
2024/03/21 22:32:43;;;;;;;8.70;5.57;;;;;;;8.75;100.00;150872.19;10482227;28;20047;-70
2024/03/21 22:37:44;;;;;;;8.00;5.85;;;;;;;8.78;100.00;150879.94;10464901;28;20040;-71
2024/03/21 22:42:45;;;;;;;6.85;5.00;;;;;;;8.99;97.81;150934.09;10481676;28;20033;-71
2024/03/21 22:47:46;;;;;;;4.93;4.25;;;;;;;8.86;97.05;150899.28;10464164;28;20041;-71
2024/03/21 22:52:47;;;;;;;5.80;4.13;;;;;;;8.99;95.74;150932.81;10465163;28;20071;-71
2024/03/21 22:57:47;;;;;;;5.93;5.32;;;;;;;8.98;96.03;150930.19;10482128;28;20033;-71
2024/03/21 23:02:54;;;;;;;7.60;5.15;;;;;;;8.86;97.25;150899.28;10464856;28;20047;-71